sensor_id;sensor_type;location;lat;lon;timestamp;pressure;altitude;pressure_sealevel;temperature;humidity
33163;BME280;29282;45.656;11.302;2022-12-31T00:01:13;99205.16;;;16.63;47.16
33163;BME280;29282;45.656;11.302;2022-12-31T00:03:40;99208.69;;;16.64;47.20
33163;BME280;29282;45.656;11.302;2022-12-31T00:06:19;99217.72;;;16.64;47.27
33163;BME280;29282;45.656;11.302;2022-12-31T00:08:46;99214.69;;;16.66;47.32
33163;BME280;29282;45.656;11.302;2022-12-31T00:11:12;99219.03;;;16.67;47.40
33163;BME280;29282;45.656;11.302;2022-12-31T00:13:38;99205.38;;;16.67;47.08
33163;BME280;29282;45.656;11.302;2022-12-31T00:16:06;99217.44;;;16.66;47.37
33163;BME280;29282;45.656;11.302;2022-12-31T00:18:32;99223.41;;;16.68;47.39
33163;BME280;29282;45.656;11.302;2022-12-31T00:20:57;99220.66;;;16.68;47.06
33163;BME280;29282;45.656;11.302;2022-12-31T00:23:23;99226.13;;;16.68;47.13
33163;BME280;29282;45.656;11.302;2022-12-31T00:25:48;99214.38;;;16.67;47.28
33163;BME280;29282;45.656;11.302;2022-12-31T00:28:14;99225.31;;;16.67;47.25
33163;BME280;29282;45.656;11.302;2022-12-31T00:30:39;99216.00;;;16.68;47.26
33163;BME280;29282;45.656;11.302;2022-12-31T00:33:05;99223.41;;;16.68;47.13
33163;BME280;29282;45.656;11.302;2022-12-31T00:35:30;99228.06;;;16.67;47.28
33163;BME280;29282;45.656;11.302;2022-12-31T00:37:56;99240.94;;;16.67;47.18
33163;BME280;29282;45.656;11.302;2022-12-31T00:40:21;99232.41;;;16.68;47.15
33163;BME280;29282;45.656;11.302;2022-12-31T00:42:47;99234.88;;;16.70;47.23
33163;BME280;29282;45.656;11.302;2022-12-31T00:45:12;99249.66;;;16.69;47.24
33163;BME280;29282;45.656;11.302;2022-12-31T00:47:38;99243.06;;;16.70;47.16
33163;BME280;29282;45.656;11.302;2022-12-31T00:50:03;99246.09;;;16.68;47.15
33163;BME280;29282;45.656;11.302;2022-12-31T00:52:29;99252.91;;;16.71;47.27
33163;BME280;29282;45.656;11.302;2022-12-31T00:54:55;99259.50;;;16.70;47.03
33163;BME280;29282;45.656;11.302;2022-12-31T00:57:22;99255.16;;;16.69;47.23
33163;BME280;29282;45.656;11.302;2022-12-31T00:59:47;99262.22;;;16.70;47.13
33163;BME280;29282;45.656;11.302;2022-12-31T01:02:13;99252.09;;;16.71;47.13
33163;BME280;29282;45.656;11.302;2022-12-31T01:04:38;99261.09;;;16.71;47.15
33163;BME280;29282;45.656;11.302;2022-12-31T01:07:04;99268.22;;;16.72;47.09
33163;BME280;29282;45.656;11.302;2022-12-31T01:09:29;99266.59;;;16.71;46.96
33163;BME280;29282;45.656;11.302;2022-12-31T01:11:55;99270.97;;;16.72;47.02
33163;BME280;29282;45.656;11.302;2022-12-31T01:14:20;99276.72;;;16.71;46.97
33163;BME280;29282;45.656;11.302;2022-12-31T01:16:49;99278.34;;;16.72;47.12
33163;BME280;29282;45.656;11.302;2022-12-31T01:19:24;99285.47;;;16.73;47.11
33163;BME280;29282;45.656;11.302;2022-12-31T01:21:50;99277.53;;;16.71;47.23
33163;BME280;29282;45.656;11.302;2022-12-31T01:24:15;99281.06;;;16.72;46.92
33163;BME280;29282;45.656;11.302;2022-12-31T01:26:42;99283.53;;;16.73;47.08
33163;BME280;29282;45.656;11.302;2022-12-31T01:29:08;99290.94;;;16.73;46.91
33163;BME280;29282;45.656;11.302;2022-12-31T01:31:36;99287.38;;;16.72;47.00
33163;BME280;29282;45.656;11.302;2022-12-31T01:34:02;99288.19;;;16.73;47.08
33163;BME280;29282;45.656;11.302;2022-12-31T01:36:31;99283.00;;;16.71;47.01
33163;BME280;29282;45.656;11.302;2022-12-31T01:38:59;99293.34;;;16.74;46.90
33163;BME280;29282;45.656;11.302;2022-12-31T01:41:28;99294.47;;;16.73;46.99
33163;BME280;29282;45.656;11.302;2022-12-31T01:49:17;99285.16;;;16.74;46.97
33163;BME280;29282;45.656;11.302;2022-12-31T01:51:47;99281.91;;;16.72;47.09
33163;BME280;29282;45.656;11.302;2022-12-31T01:54:15;99292.84;;;16.72;46.91
33163;BME280;29282;45.656;11.302;2022-12-31T01:56:44;99295.59;;;16.72;47.00
33163;BME280;29282;45.656;11.302;2022-12-31T01:59:13;99289.81;;;16.74;46.97
33163;BME280;29282;45.656;11.302;2022-12-31T02:01:39;99298.81;;;16.74;47.09
33163;BME280;29282;45.656;11.302;2022-12-31T02:04:10;99301.56;;;16.74;46.97
33163;BME280;29282;45.656;11.302;2022-12-31T02:07:06;99305.41;;;16.73;46.98
33163;BME280;29282;45.656;11.302;2022-12-31T02:09:33;99307.03;;;16.74;46.97
33163;BME280;29282;45.656;11.302;2022-12-31T02:12:00;99297.50;;;16.72;47.00
33163;BME280;29282;45.656;11.302;2022-12-31T02:14:38;99304.59;;;16.73;46.91
33163;BME280;29282;45.656;11.302;2022-12-31T02:30:38;99305.41;;;16.73;47.19
33163;BME280;29282;45.656;11.302;2022-12-31T02:36:04;99313.56;;;16.78;46.85
33163;BME280;29282;45.656;11.302;2022-12-31T02:38:37;99312.75;;;16.78;46.94
33163;BME280;29282;45.656;11.302;2022-12-31T02:41:03;99301.81;;;16.78;46.75
33163;BME280;29282;45.656;11.302;2022-12-31T02:43:28;99297.44;;;16.77;46.73
33163;BME280;29282;45.656;11.302;2022-12-31T02:59:38;99335.44;;;16.78;46.89
33163;BME280;29282;45.656;11.302;2022-12-31T03:02:26;99329.16;;;16.78;46.92
33163;BME280;29282;45.656;11.302;2022-12-31T03:04:55;99329.97;;;16.78;46.79
33163;BME280;29282;45.656;11.302;2022-12-31T03:07:22;99329.97;;;16.78;46.75
33163;BME280;29282;45.656;11.302;2022-12-31T03:09:48;99321.50;;;16.80;46.76
33163;BME280;29282;45.656;11.302;2022-12-31T03:12:15;99325.03;;;16.80;46.70
33163;BME280;29282;45.656;11.302;2022-12-31T03:15:00;99325.03;;;16.80;46.71
33163;BME280;29282;45.656;11.302;2022-12-31T03:17:26;99332.44;;;16.80;46.66
33163;BME280;29282;45.656;11.302;2022-12-31T03:19:51;99335.44;;;16.78;46.70
33163;BME280;29282;45.656;11.302;2022-12-31T03:22:38;99333.84;;;16.77;46.81
33163;BME280;29282;45.656;11.302;2022-12-31T03:25:16;99344.19;;;16.80;46.72
33163;BME280;29282;45.656;11.302;2022-12-31T03:28:02;99334.84;;;16.81;46.59
33163;BME280;29282;45.656;11.302;2022-12-31T03:30:29;99339.84;;;16.79;46.92
33163;BME280;29282;45.656;11.302;2022-12-31T03:32:56;99337.38;;;16.78;46.83
33163;BME280;29282;45.656;11.302;2022-12-31T03:35:23;99333.84;;;16.77;46.85
33163;BME280;29282;45.656;11.302;2022-12-31T03:37:49;99332.72;;;16.78;46.60
33163;BME280;29282;45.656;11.302;2022-12-31T03:40:16;99335.44;;;16.78;46.78
33163;BME280;29282;45.656;11.302;2022-12-31T03:42:42;99344.19;;;16.80;46.71
33163;BME280;29282;45.656;11.302;2022-12-31T03:45:09;99338.72;;;16.80;46.53
33163;BME280;29282;45.656;11.302;2022-12-31T03:47:35;99334.84;;;16.81;46.75
33163;BME280;29282;45.656;11.302;2022-12-31T03:50:01;99333.25;;;16.80;46.48
33163;BME280;29282;45.656;11.302;2022-12-31T03:52:26;99334.84;;;16.81;46.67
33163;BME280;29282;45.656;11.302;2022-12-31T03:54:52;99330.19;;;16.82;46.68
33163;BME280;29282;45.656;11.302;2022-12-31T03:57:17;99335.66;;;16.82;46.62
33163;BME280;29282;45.656;11.302;2022-12-31T03:59:42;99337.00;;;16.84;46.61
33163;BME280;29282;45.656;11.302;2022-12-31T04:02:08;99334.25;;;16.84;46.61
33163;BME280;29282;45.656;11.302;2022-12-31T04:04:34;99328.28;;;16.82;46.64
33163;BME280;29282;45.656;11.302;2022-12-31T04:06:59;99331.03;;;16.82;46.84
33163;BME280;29282;45.656;11.302;2022-12-31T04:09:25;99344.72;;;16.82;46.42
33163;BME280;29282;45.656;11.302;2022-12-31T04:11:50;99340.06;;;16.83;46.55
33163;BME280;29282;45.656;11.302;2022-12-31T04:14:16;99333.19;;;16.85;46.29
33163;BME280;29282;45.656;11.302;2022-12-31T04:16:42;99348.25;;;16.83;46.63
33163;BME280;29282;45.656;11.302;2022-12-31T04:19:08;99356.47;;;16.83;46.84
33163;BME280;29282;45.656;11.302;2022-12-31T04:21:34;99356.16;;;16.84;46.51
33163;BME280;29282;45.656;11.302;2022-12-31T04:24:00;99351.00;;;16.83;46.53
33163;BME280;29282;45.656;11.302;2022-12-31T04:26:26;99353.75;;;16.83;46.55
33163;BME280;29282;45.656;11.302;2022-12-31T04:28:51;99358.09;;;16.84;46.61
33163;BME280;29282;45.656;11.302;2022-12-31T04:31:17;99356.16;;;16.84;46.36
33163;BME280;29282;45.656;11.302;2022-12-31T04:33:42;99364.38;;;16.84;46.63
33163;BME280;29282;45.656;11.302;2022-12-31T04:36:08;99371.78;;;16.84;46.55
33163;BME280;29282;45.656;11.302;2022-12-31T04:38:34;99368.75;;;16.85;46.57
33163;BME280;29282;45.656;11.302;2022-12-31T04:40:59;99367.13;;;16.84;46.61
33163;BME280;29282;45.656;11.302;2022-12-31T04:43:53;99368.50;;;16.82;46.63
33163;BME280;29282;45.656;11.302;2022-12-31T04:46:28;99372.59;;;16.84;46.50
33163;BME280;29282;45.656;11.302;2022-12-31T04:48:55;99380.00;;;16.84;46.55
33163;BME280;29282;45.656;11.302;2022-12-31T04:51:22;99381.91;;;16.83;46.46
33163;BME280;29282;45.656;11.302;2022-12-31T04:53:48;99373.41;;;16.85;46.67
33163;BME280;29282;45.656;11.302;2022-12-31T04:56:14;99386.00;;;16.86;46.42
33163;BME280;29282;45.656;11.302;2022-12-31T04:58:40;99390.03;;;16.88;46.36
33163;BME280;29282;45.656;11.302;2022-12-31T05:01:06;99395.28;;;16.85;46.50
33163;BME280;29282;45.656;11.302;2022-12-31T05:03:33;99401.59;;;16.85;46.63
33163;BME280;29282;45.656;11.302;2022-12-31T05:06:14;99399.97;;;16.84;46.55
33163;BME280;29282;45.656;11.302;2022-12-31T05:08:40;99394.69;;;16.88;46.50
33163;BME280;29282;45.656;11.302;2022-12-31T05:11:06;99392.78;;;16.88;46.55
33163;BME280;29282;45.656;11.302;2022-12-31T05:13:32;99395.50;;;16.88;46.29
33163;BME280;29282;45.656;11.302;2022-12-31T05:15:58;99406.47;;;16.88;46.41
33163;BME280;29282;45.656;11.302;2022-12-31T05:18:23;99412.47;;;16.90;46.25
33163;BME280;29282;45.656;11.302;2022-12-31T05:20:49;99419.34;;;16.88;46.63
33163;BME280;29282;45.656;11.302;2022-12-31T05:23:15;99422.88;;;16.88;46.38
33163;BME280;29282;45.656;11.302;2022-12-31T05:25:42;99424.53;;;16.89;46.44
33163;BME280;29282;45.656;11.302;2022-12-31T05:28:08;99420.66;;;16.90;46.30
33163;BME280;29282;45.656;11.302;2022-12-31T05:30:34;99434.66;;;16.89;46.45
33163;BME280;29282;45.656;11.302;2022-12-31T05:32:59;99444.78;;;16.88;46.56
33163;BME280;29282;45.656;11.302;2022-12-31T05:35:25;99444.50;;;16.90;46.53
33163;BME280;29282;45.656;11.302;2022-12-31T05:37:51;99448.34;;;16.89;46.40
33163;BME280;29282;45.656;11.302;2022-12-31T05:40:16;99448.34;;;16.89;46.35
33163;BME280;29282;45.656;11.302;2022-12-31T05:42:43;99444.19;;;16.91;46.17
33163;BME280;29282;45.656;11.302;2022-12-31T05:45:09;99453.25;;;16.92;46.45
33163;BME280;29282;45.656;11.302;2022-12-31T05:47:38;99464.47;;;16.90;46.42
33163;BME280;29282;45.656;11.302;2022-12-31T05:50:05;99465.59;;;16.89;46.29
33163;BME280;29282;45.656;11.302;2022-12-31T05:52:31;99466.69;;;16.88;46.37
33163;BME280;29282;45.656;11.302;2022-12-31T05:54:56;99473.28;;;16.87;46.28
33163;BME280;29282;45.656;11.302;2022-12-31T05:57:22;99480.69;;;16.87;46.37
33163;BME280;29282;45.656;11.302;2022-12-31T05:59:47;99492.75;;;16.86;46.49
33163;BME280;29282;45.656;11.302;2022-12-31T06:02:13;99498.72;;;16.88;46.37
33163;BME280;29282;45.656;11.302;2022-12-31T06:04:39;99505.84;;;16.89;46.44
33163;BME280;29282;45.656;11.302;2022-12-31T06:07:04;99506.94;;;16.88;46.38
33163;BME280;29282;45.656;11.302;2022-12-31T06:09:30;99506.66;;;16.89;46.37
33163;BME280;29282;45.656;11.302;2022-12-31T06:11:55;99500.63;;;16.87;46.33
33163;BME280;29282;45.656;11.302;2022-12-31T06:14:21;99506.94;;;16.88;46.52
33163;BME280;29282;45.656;11.302;2022-12-31T06:16:46;99501.19;;;16.89;46.38
33163;BME280;29282;45.656;11.302;2022-12-31T06:19:12;99500.63;;;16.87;46.40
33163;BME280;29282;45.656;11.302;2022-12-31T06:21:37;99508.84;;;16.87;46.53
33163;BME280;29282;45.656;11.302;2022-12-31T06:24:03;99512.13;;;16.89;46.36
33163;BME280;29282;45.656;11.302;2022-12-31T06:26:28;99509.38;;;16.89;46.35
33163;BME280;29282;45.656;11.302;2022-12-31T06:28:54;99517.59;;;16.89;46.34
33163;BME280;29282;45.656;11.302;2022-12-31T06:31:19;99532.09;;;16.90;46.33
33163;BME280;29282;45.656;11.302;2022-12-31T06:33:45;99539.50;;;16.89;46.45
33163;BME280;29282;45.656;11.302;2022-12-31T06:36:13;99537.84;;;16.88;46.58
33163;BME280;29282;45.656;11.302;2022-12-31T06:38:40;99533.22;;;16.89;46.37
33163;BME280;29282;45.656;11.302;2022-12-31T06:41:08;99531.56;;;16.88;46.28
33163;BME280;29282;45.656;11.302;2022-12-31T06:43:34;99542.50;;;16.88;46.48
33163;BME280;29282;45.656;11.302;2022-12-31T06:46:02;99541.44;;;16.89;46.32
33163;BME280;29282;45.656;11.302;2022-12-31T06:48:27;99542.72;;;16.91;46.26
33163;BME280;29282;45.656;11.302;2022-12-31T06:50:53;99548.78;;;16.88;46.18
33163;BME280;29282;45.656;11.302;2022-12-31T06:53:18;99545.78;;;16.90;46.28
33163;BME280;29282;45.656;11.302;2022-12-31T06:55:44;99552.38;;;16.89;46.47
33163;BME280;29282;45.656;11.302;2022-12-31T06:58:13;99556.72;;;16.90;46.33
33163;BME280;29282;45.656;11.302;2022-12-31T07:00:51;99555.91;;;16.89;46.38
33163;BME280;29282;45.656;11.302;2022-12-31T07:03:39;99557.00;;;16.88;46.21
33163;BME280;29282;45.656;11.302;2022-12-31T07:06:16;99573.16;;;16.90;46.50
33163;BME280;29282;45.656;11.302;2022-12-31T07:08:51;99569.88;;;16.88;46.34
33163;BME280;29282;45.656;11.302;2022-12-31T07:11:23;99571.31;;;16.85;46.36
33163;BME280;29282;45.656;11.302;2022-12-31T07:14:27;99577.00;;;16.89;46.39
33163;BME280;29282;45.656;11.302;2022-12-31T07:19:24;99577.00;;;16.89;46.38
33163;BME280;29282;45.656;11.302;2022-12-31T07:21:54;99576.69;;;16.90;46.20
33163;BME280;29282;45.656;11.302;2022-12-31T07:24:22;99589.03;;;16.88;46.31
33163;BME280;29282;45.656;11.302;2022-12-31T07:27:11;99592.59;;;16.88;46.29
33163;BME280;29282;45.656;11.302;2022-12-31T07:35:41;99607.41;;;16.87;46.15
33163;BME280;29282;45.656;11.302;2022-12-31T07:41:06;99610.94;;;16.88;46.50
33163;BME280;29282;45.656;11.302;2022-12-31T07:46:32;99616.16;;;16.89;46.56
33163;BME280;29282;45.656;11.302;2022-12-31T07:49:00;99618.34;;;16.87;46.34
33163;BME280;29282;45.656;11.302;2022-12-31T07:51:26;99622.72;;;16.88;46.34
33163;BME280;29282;45.656;11.302;2022-12-31T07:53:52;99618.34;;;16.87;46.27
33163;BME280;29282;45.656;11.302;2022-12-31T07:56:17;99615.59;;;16.87;46.35
33163;BME280;29282;45.656;11.302;2022-12-31T08:01:51;99618.34;;;16.87;46.17
33163;BME280;29282;45.656;11.302;2022-12-31T08:07:31;99619.97;;;16.88;46.52
33163;BME280;29282;45.656;11.302;2022-12-31T08:13:01;99627.94;;;16.85;46.47
33163;BME280;29282;45.656;11.302;2022-12-31T08:15:27;99635.34;;;16.84;46.60
33163;BME280;29282;45.656;11.302;2022-12-31T08:17:53;99632.91;;;16.83;46.57
33163;BME280;29282;45.656;11.302;2022-12-31T08:20:19;99635.59;;;16.88;46.40
33163;BME280;29282;45.656;11.302;2022-12-31T08:28:41;99640.56;;;16.86;46.52
33163;BME280;29282;45.656;11.302;2022-12-31T08:31:20;99645.72;;;16.87;46.40
33163;BME280;29282;45.656;11.302;2022-12-31T08:34:13;99645.50;;;16.84;46.37
33163;BME280;29282;45.656;11.302;2022-12-31T08:39:26;99653.44;;;16.85;46.59
33163;BME280;29282;45.656;11.302;2022-12-31T08:41:57;99650.16;;;16.83;46.64
33163;BME280;29282;45.656;11.302;2022-12-31T08:44:48;99653.44;;;16.85;46.35
33163;BME280;29282;45.656;11.302;2022-12-31T08:50:15;99659.47;;;16.82;46.41
33163;BME280;29282;45.656;11.302;2022-12-31T08:52:41;99664.38;;;16.85;46.52
33163;BME280;29282;45.656;11.302;2022-12-31T08:55:07;99657.56;;;16.83;46.61
33163;BME280;29282;45.656;11.302;2022-12-31T08:57:55;99670.44;;;16.82;46.42
33163;BME280;29282;45.656;11.302;2022-12-31T09:00:22;99668.50;;;16.83;46.47
33163;BME280;29282;45.656;11.302;2022-12-31T09:04:19;99672.06;;;16.83;46.57
33163;BME280;29282;45.656;11.302;2022-12-31T09:17:23;99666.56;;;16.83;46.65
33163;BME280;29282;45.656;11.302;2022-12-31T09:19:53;99652.34;;;16.81;46.51
33163;BME280;29282;45.656;11.302;2022-12-31T09:22:18;99653.16;;;16.82;46.57
33163;BME280;29282;45.656;11.302;2022-12-31T09:24:44;99656.22;;;16.80;46.64
33163;BME280;29282;45.656;11.302;2022-12-31T09:27:16;99654.00;;;16.82;46.51
33163;BME280;29282;45.656;11.302;2022-12-31T09:30:02;99661.91;;;16.84;46.45
33163;BME280;29282;45.656;11.302;2022-12-31T09:37:49;99669.59;;;16.82;46.45
33163;BME280;29282;45.656;11.302;2022-12-31T09:43:09;99676.41;;;16.84;46.62
33163;BME280;29282;45.656;11.302;2022-12-31T10:00:14;99679.16;;;16.84;46.61
33163;BME280;29282;45.656;11.302;2022-12-31T10:05:58;99685.75;;;16.83;46.45
33163;BME280;29282;45.656;11.302;2022-12-31T10:23:18;99682.69;;;16.85;46.58
33163;BME280;29282;45.656;11.302;2022-12-31T10:28:26;99668.50;;;16.83;46.72
33163;BME280;29282;45.656;11.302;2022-12-31T10:31:16;99669.59;;;16.82;46.42
33163;BME280;29282;45.656;11.302;2022-12-31T10:34:12;99669.00;;;16.85;46.52
33163;BME280;29282;45.656;11.302;2022-12-31T11:00:11;99655.41;;;16.80;46.72
33163;BME280;29282;45.656;11.302;2022-12-31T11:11:02;99661.16;;;16.78;46.78
33163;BME280;29282;45.656;11.302;2022-12-31T11:13:52;99655.66;;;16.78;47.06
33163;BME280;29282;45.656;11.302;2022-12-31T11:22:12;99669.66;;;16.77;46.93
33163;BME280;29282;45.656;11.302;2022-12-31T11:30:40;99666.91;;;16.77;46.69
33163;BME280;29282;45.656;11.302;2022-12-31T11:33:40;99652.69;;;16.75;46.89
33163;BME280;29282;45.656;11.302;2022-12-31T11:39:14;99667.47;;;16.74;46.97
33163;BME280;29282;45.656;11.302;2022-12-31T11:58:46;99652.69;;;16.75;46.88
33163;BME280;29282;45.656;11.302;2022-12-31T12:01:17;99643.66;;;16.74;46.98
33163;BME280;29282;45.656;11.302;2022-12-31T12:03:44;99641.75;;;16.75;47.00
33163;BME280;29282;45.656;11.302;2022-12-31T12:06:17;99646.38;;;16.74;47.04
33163;BME280;29282;45.656;11.302;2022-12-31T12:08:44;99643.94;;;16.73;46.94
33163;BME280;29282;45.656;11.302;2022-12-31T12:11:20;99648.03;;;16.75;47.04
33163;BME280;29282;45.656;11.302;2022-12-31T12:13:48;99645.31;;;16.75;46.97
33163;BME280;29282;45.656;11.302;2022-12-31T12:16:13;99640.91;;;16.74;47.22
33163;BME280;29282;45.656;11.302;2022-12-31T12:18:49;99638.47;;;16.73;47.23
33163;BME280;29282;45.656;11.302;2022-12-31T12:21:17;99640.91;;;16.74;47.04
33163;BME280;29282;45.656;11.302;2022-12-31T12:24:18;99637.66;;;16.72;47.11
33163;BME280;29282;45.656;11.302;2022-12-31T12:26:44;99641.22;;;16.73;47.10
33163;BME280;29282;45.656;11.302;2022-12-31T12:31:38;99636.00;;;16.71;47.01
33163;BME280;29282;45.656;11.302;2022-12-31T12:34:04;99632.19;;;16.72;47.20
33163;BME280;29282;45.656;11.302;2022-12-31T12:36:30;99631.34;;;16.72;47.14
33163;BME280;29282;45.656;11.302;2022-12-31T12:39:02;99622.34;;;16.71;47.12
33163;BME280;29282;45.656;11.302;2022-12-31T12:41:28;99630.53;;;16.71;47.04
33163;BME280;29282;45.656;11.302;2022-12-31T12:44:08;99631.34;;;16.72;46.96
33163;BME280;29282;45.656;11.302;2022-12-31T12:46:47;99628.09;;;16.70;47.12
33163;BME280;29282;45.656;11.302;2022-12-31T12:49:27;99627.81;;;16.71;47.12
33163;BME280;29282;45.656;11.302;2022-12-31T12:56:56;99615.25;;;16.70;47.10
33163;BME280;29282;45.656;11.302;2022-12-31T12:59:32;99613.03;;;16.72;47.16
33163;BME280;29282;45.656;11.302;2022-12-31T13:13:35;99617.16;;;16.70;47.10
33163;BME280;29282;45.656;11.302;2022-12-31T13:21:40;99620.19;;;16.68;47.24
33163;BME280;29282;45.656;11.302;2022-12-31T13:27:27;99615.50;;;16.68;47.35
33163;BME280;29282;45.656;11.302;2022-12-31T13:29:55;99621.81;;;16.69;47.35
33163;BME280;29282;45.656;11.302;2022-12-31T13:32:38;99618.25;;;16.68;47.25
33163;BME280;29282;45.656;11.302;2022-12-31T13:35:23;99615.81;;;16.67;47.30
33163;BME280;29282;45.656;11.302;2022-12-31T13:37:50;99613.88;;;16.67;47.47
33163;BME280;29282;45.656;11.302;2022-12-31T13:40:25;99624.03;;;16.67;47.26
33163;BME280;29282;45.656;11.302;2022-12-31T13:43:00;99628.69;;;16.66;47.26
33163;BME280;29282;45.656;11.302;2022-12-31T13:45:38;99627.88;;;16.66;47.41
33163;BME280;29282;45.656;11.302;2022-12-31T13:48:11;99630.88;;;16.64;47.46
33163;BME280;29282;45.656;11.302;2022-12-31T13:51:33;99644.28;;;16.66;47.53
33163;BME280;29282;45.656;11.302;2022-12-31T13:56:41;99639.91;;;16.65;47.22
33163;BME280;29282;45.656;11.302;2022-12-31T13:59:18;99631.19;;;16.63;47.38
33163;BME280;29282;45.656;11.302;2022-12-31T14:01:59;99636.09;;;16.66;47.31
33163;BME280;29282;45.656;11.302;2022-12-31T14:07:36;99642.63;;;16.65;47.42
33163;BME280;29282;45.656;11.302;2022-12-31T14:10:10;99640.22;;;16.63;47.22
33163;BME280;29282;45.656;11.302;2022-12-31T14:12:39;99636.34;;;16.64;47.40
33163;BME280;29282;45.656;11.302;2022-12-31T14:16:18;99647.31;;;16.64;47.34
33163;BME280;29282;45.656;11.302;2022-12-31T14:21:02;99639.41;;;16.63;47.28
33163;BME280;29282;45.656;11.302;2022-12-31T14:26:22;99651.97;;;16.64;47.39
33163;BME280;29282;45.656;11.302;2022-12-31T14:41:56;99671.94;;;16.64;47.42
33163;BME280;29282;45.656;11.302;2022-12-31T14:50:11;99675.78;;;16.63;47.38
33163;BME280;29282;45.656;11.302;2022-12-31T14:57:49;99681.53;;;16.62;47.44
33163;BME280;29282;45.656;11.302;2022-12-31T15:00:30;99684.00;;;16.63;47.45
33163;BME280;29282;45.656;11.302;2022-12-31T15:03:02;99684.00;;;16.63;47.41
33163;BME280;29282;45.656;11.302;2022-12-31T15:05:33;99691.38;;;16.63;47.12
33163;BME280;29282;45.656;11.302;2022-12-31T15:13:24;99706.16;;;16.62;47.57
33163;BME280;29282;45.656;11.302;2022-12-31T15:16:02;99701.53;;;16.62;47.45
33163;BME280;29282;45.656;11.302;2022-12-31T15:21:31;99707.50;;;16.64;47.29
33163;BME280;29282;45.656;11.302;2022-12-31T15:23:59;99709.44;;;16.64;47.33
33163;BME280;29282;45.656;11.302;2022-12-31T15:26:30;99705.06;;;16.63;47.47
33163;BME280;29282;45.656;11.302;2022-12-31T15:29:26;99708.06;;;16.61;47.43
33163;BME280;29282;45.656;11.302;2022-12-31T15:31:53;99708.88;;;16.62;47.48
33163;BME280;29282;45.656;11.302;2022-12-31T15:34:27;99708.88;;;16.62;47.35
33163;BME280;29282;45.656;11.302;2022-12-31T15:36:59;99711.63;;;16.62;47.29
33163;BME280;29282;45.656;11.302;2022-12-31T15:39:38;99713.28;;;16.63;47.42
33163;BME280;29282;45.656;11.302;2022-12-31T15:42:26;99724.22;;;16.63;47.32
33163;BME280;29282;45.656;11.302;2022-12-31T15:44:58;99715.47;;;16.61;47.43
33163;BME280;29282;45.656;11.302;2022-12-31T15:47:42;99721.75;;;16.61;47.36
33163;BME280;29282;45.656;11.302;2022-12-31T15:50:20;99724.78;;;16.60;47.32
33163;BME280;29282;45.656;11.302;2022-12-31T15:52:58;99726.41;;;16.61;47.56
33163;BME280;29282;45.656;11.302;2022-12-31T15:55:46;99728.34;;;16.60;47.38
33163;BME280;29282;45.656;11.302;2022-12-31T15:58:18;99725.31;;;16.62;47.42
33163;BME280;29282;45.656;11.302;2022-12-31T16:00:55;99729.16;;;16.61;47.46
33163;BME280;29282;45.656;11.302;2022-12-31T16:03:25;99734.63;;;16.61;47.45
33163;BME280;29282;45.656;11.302;2022-12-31T16:05:59;99736.25;;;16.62;47.45
33163;BME280;29282;45.656;11.302;2022-12-31T16:08:30;99740.09;;;16.61;47.32
33163;BME280;29282;45.656;11.302;2022-12-31T16:10:57;99734.63;;;16.61;47.34
33163;BME280;29282;45.656;11.302;2022-12-31T16:13:24;99736.56;;;16.60;47.50
33163;BME280;29282;45.656;11.302;2022-12-31T16:15:56;99738.47;;;16.60;47.43
33163;BME280;29282;45.656;11.302;2022-12-31T16:18:24;99751.03;;;16.61;47.36
33163;BME280;29282;45.656;11.302;2022-12-31T16:21:00;99764.47;;;16.62;47.43
33163;BME280;29282;45.656;11.302;2022-12-31T16:23:26;99764.47;;;16.62;47.28
33163;BME280;29282;45.656;11.302;2022-12-31T16:25:54;99762.00;;;16.61;47.34
33163;BME280;29282;45.656;11.302;2022-12-31T16:28:28;99768.28;;;16.61;47.59
33163;BME280;29282;45.656;11.302;2022-12-31T16:31:06;99766.34;;;16.62;47.53
33163;BME280;29282;45.656;11.302;2022-12-31T16:33:32;99769.94;;;16.62;47.62
33163;BME280;29282;45.656;11.302;2022-12-31T16:35:59;99774.56;;;16.62;47.40
33163;BME280;29282;45.656;11.302;2022-12-31T16:38:35;99768.00;;;16.63;47.39
33163;BME280;29282;45.656;11.302;2022-12-31T16:43:36;99783.31;;;16.64;47.50
33163;BME280;29282;45.656;11.302;2022-12-31T16:46:24;99781.69;;;16.63;47.39
33163;BME280;29282;45.656;11.302;2022-12-31T16:48:57;99773.47;;;16.63;47.39
33163;BME280;29282;45.656;11.302;2022-12-31T16:51:27;99777.84;;;16.64;47.31
33163;BME280;29282;45.656;11.302;2022-12-31T16:53:54;99778.38;;;16.66;47.25
33163;BME280;29282;45.656;11.302;2022-12-31T16:56:32;99781.13;;;16.66;47.41
33163;BME280;29282;45.656;11.302;2022-12-31T16:59:02;99788.22;;;16.67;47.27
33163;BME280;29282;45.656;11.302;2022-12-31T17:01:31;99783.56;;;16.67;47.34
33163;BME280;29282;45.656;11.302;2022-12-31T17:04:00;99780.31;;;16.65;47.30
33163;BME280;29282;45.656;11.302;2022-12-31T17:06:28;99783.84;;;16.66;47.35
33163;BME280;29282;45.656;11.302;2022-12-31T17:11:32;99789.84;;;16.68;47.48
33163;BME280;29282;45.656;11.302;2022-12-31T17:16:33;99793.69;;;16.67;47.32
33163;BME280;29282;45.656;11.302;2022-12-31T17:19:00;99798.34;;;16.66;47.33
33163;BME280;29282;45.656;11.302;2022-12-31T17:21:28;99801.91;;;16.67;47.33
33163;BME280;29282;45.656;11.302;2022-12-31T17:24:04;99802.44;;;16.69;47.36
33163;BME280;29282;45.656;11.302;2022-12-31T17:26:32;99808.19;;;16.67;47.26
33163;BME280;29282;45.656;11.302;2022-12-31T17:28:59;99806.25;;;16.68;47.27
33163;BME280;29282;45.656;11.302;2022-12-31T17:31:36;99805.44;;;16.67;47.49
33163;BME280;29282;45.656;11.302;2022-12-31T17:34:16;99811.72;;;16.68;47.18
33163;BME280;29282;45.656;11.302;2022-12-31T17:39:26;99815.28;;;16.68;47.29